Time;durP1;ratioP1;P1;durP2;ratioP2;P2;SDS_P1;SDS_P2;PMS_P1;PMS_P2;Temp;Humidity;BMP_temperature;BMP_pressure;BME280_temperature;BME280_humidity;BME280_pressure;Samples;Min_cycle;Max_cycle;Signal;HPM_P1;HPM_P2
2022/02/18 00:02:25;;;;;;;;;;;8.60;79.50;;;;;;5046301;28;83212;-45
2022/02/18 00:04:50;;;;;;;;;;;8.60;79.50;;;;;;5047039;27;84344;-45
2022/02/18 00:07:16;;;;;;;;;;;8.60;79.40;;;;;;5046635;28;82066;-44
2022/02/18 00:09:41;;;;;;;;;;;8.60;79.40;;;;;;5046595;27;82597;-44
2022/02/18 00:12:07;;;;;;;;;;;8.60;79.40;;;;;;5045587;27;85312;-44
2022/02/18 00:14:33;;;;;;;;;;;8.60;79.40;;;;;;5046645;27;81681;-45
2022/02/18 00:16:59;;;;;;;;;;;8.60;79.40;;;;;;5046554;27;83947;-44
2022/02/18 00:19:24;;;;;;;;;;;8.60;79.50;;;;;;5049123;27;85398;-45
2022/02/18 00:21:50;;;;;;;;;;;8.60;79.40;;;;;;5046480;27;82668;-44
2022/02/18 00:24:16;;;;;;;;;;;8.60;79.50;;;;;;5046068;27;84524;-45
2022/02/18 00:26:42;;;;;;;;;;;8.60;79.40;;;;;;5046538;27;81973;-44
2022/02/18 00:29:08;;;;;;;;;;;8.50;79.40;;;;;;5046869;27;82616;-45
2022/02/18 00:31:33;;;;;;;;;;;8.50;79.40;;;;;;5046032;27;84818;-44
2022/02/18 00:33:59;;;;;;;;;;;8.50;79.40;;;;;;5047580;27;82135;-45
2022/02/18 00:36:24;;;;;;;;;;;8.50;79.40;;;;;;5049136;27;83962;-44
2022/02/18 00:38:50;;;;;;;;;;;8.50;79.40;;;;;;5049726;27;84415;-45
2022/02/18 00:41:16;;;;;;;;;;;8.50;79.40;;;;;;5052581;27;81831;-44
2022/02/18 00:43:42;;;;;;;;;;;8.50;79.40;;;;;;5049812;27;84583;-45
2022/02/18 00:46:07;;;;;;;;;;;8.50;79.40;;;;;;5049706;27;82077;-45
2022/02/18 00:48:33;;;;;;;;;;;8.50;79.40;;;;;;5049661;27;84336;-44
2022/02/18 00:50:59;;;;;;;;;;;8.50;79.40;;;;;;5049464;27;83956;-44
2022/02/18 00:53:24;;;;;;;;;;;8.50;79.40;;;;;;5050188;27;81365;-44
2022/02/18 00:55:52;;;;;;;;;;;8.50;79.40;;;;;;5049277;27;83878;-45
2022/02/18 00:58:20;;;;;;;;;;;8.50;79.40;;;;;;5049274;27;83988;-44
2022/02/18 01:00:47;;;;;;;;;;;8.50;79.50;;;;;;5051185;27;82666;-44
2022/02/18 01:03:13;;;;;;;;;;;8.50;79.50;;;;;;5049145;27;83611;-45
2022/02/18 01:05:38;;;;;;;;;;;8.40;79.40;;;;;;5049485;27;82028;-44
2022/02/18 01:08:04;;;;;;;;;;;8.40;79.40;;;;;;5049279;27;84006;-45
2022/02/18 01:10:29;;;;;;;;;;;8.40;79.30;;;;;;5048915;27;84915;-45
2022/02/18 01:12:55;;;;;;;;;;;8.40;79.30;;;;;;5049076;27;81988;-44
2022/02/18 01:15:20;;;;;;;;;;;8.40;79.40;;;;;;5049198;27;83957;-44
2022/02/18 01:17:46;;;;;;;;;;;8.40;79.40;;;;;;5049530;27;83800;-44
2022/02/18 01:20:12;;;;;;;;;;;8.40;79.40;;;;;;5049294;27;81805;-46
2022/02/18 01:22:37;;;;;;;;;;;8.40;79.40;;;;;;5051648;27;83183;-44
2022/02/18 01:25:04;;;;;;;;;;;8.40;79.30;;;;;;5048287;27;83071;-44
2022/02/18 01:27:29;;;;;;;;;;;8.40;79.40;;;;;;5049012;27;85125;-44
2022/02/18 01:29:55;;;;;;;;;;;8.30;79.30;;;;;;5049003;27;84744;-44
2022/02/18 01:32:20;;;;;;;;;;;8.30;79.30;;;;;;5048884;27;82088;-44
2022/02/18 01:34:46;;;;;;;;;;;8.30;79.40;;;;;;5049238;28;81904;-44
2022/02/18 01:37:12;;;;;;;;;;;8.30;79.40;;;;;;5048661;27;83988;-45
2022/02/18 01:39:37;;;;;;;;;;;8.30;79.40;;;;;;5048869;27;82123;-44
2022/02/18 01:42:03;;;;;;;;;;;8.30;79.40;;;;;;5049502;27;83994;-44
2022/02/18 01:44:37;;;;;;;;;;;8.30;79.40;;;;;;5051319;27;83349;-44
2022/02/18 01:47:03;;;;;;;;;;;8.30;79.90;;;;;;5048712;28;83082;-44
2022/02/18 01:49:29;;;;;;;;;;;8.30;79.40;;;;;;5047928;27;85405;-44
2022/02/18 01:51:55;;;;;;;;;;;8.30;79.40;;;;;;5048613;27;82098;-44
2022/02/18 01:54:21;;;;;;;;;;;8.30;79.40;;;;;;5048390;27;83948;-44
2022/02/18 01:56:46;;;;;;;;;;;8.30;79.30;;;;;;5048343;27;83492;-44
2022/02/18 01:59:12;;;;;;;;;;;8.30;79.40;;;;;;5048608;27;82190;-45
2022/02/18 02:01:37;;;;;;;;;;;8.30;79.40;;;;;;5048299;27;83370;-44
2022/02/18 02:04:03;;;;;;;;;;;8.30;79.40;;;;;;5048296;28;85206;-44
2022/02/18 02:06:29;;;;;;;;;;;8.30;79.30;;;;;;5051702;27;81111;-45
2022/02/18 02:08:54;;;;;;;;;;;8.30;79.40;;;;;;5048055;27;83718;-44
2022/02/18 02:11:20;;;;;;;;;;;8.20;79.30;;;;;;5048166;27;82094;-44
2022/02/18 02:13:45;;;;;;;;;;;8.20;79.40;;;;;;5047542;28;83845;-45
2022/02/18 02:16:12;;;;;;;;;;;8.20;79.40;;;;;;5048110;27;84221;-44
2022/02/18 02:18:38;;;;;;;;;;;8.20;79.40;;;;;;5048411;27;81978;-44
2022/02/18 02:21:03;;;;;;;;;;;8.20;79.30;;;;;;5048306;27;83974;-45
2022/02/18 02:23:29;;;;;;;;;;;8.20;79.40;;;;;;5047654;27;84440;-45
2022/02/18 02:25:54;;;;;;;;;;;8.20;79.30;;;;;;5048160;27;82127;-45
2022/02/18 02:28:20;;;;;;;;;;;8.20;79.30;;;;;;5050737;27;83742;-44
2022/02/18 02:30:46;;;;;;;;;;;8.20;79.30;;;;;;5048818;28;81242;-44
2022/02/18 02:33:12;;;;;;;;;;;8.20;79.40;;;;;;5048061;27;82943;-44
2022/02/18 02:35:37;;;;;;;;;;;8.20;79.40;;;;;;5048007;28;83614;-44
2022/02/18 02:38:03;;;;;;;;;;;8.20;79.40;;;;;;5047304;27;82728;-44
2022/02/18 02:40:29;;;;;;;;;;;8.20;79.40;;;;;;5047843;27;85059;-44
2022/02/18 02:42:55;;;;;;;;;;;8.20;79.40;;;;;;5047713;27;84521;-45
2022/02/18 02:48:05;;;;;;;;;;;8.10;79.40;;;;;;5048031;28;81819;-44
2022/02/18 02:50:31;;;;;;;;;;;8.10;79.40;;;;;;5050301;27;84655;-44
2022/02/18 02:52:56;;;;;;;;;;;8.10;79.40;;;;;;5047523;27;84049;-44
2022/02/18 02:55:22;;;;;;;;;;;8.10;79.40;;;;;;5048040;27;83797;-44
2022/02/18 02:57:48;;;;;;;;;;;8.10;79.40;;;;;;5046818;27;82087;-44
2022/02/18 03:00:14;;;;;;;;;;;8.10;79.40;;;;;;5047632;27;84002;-44
2022/02/18 03:02:40;;;;;;;;;;;8.10;79.30;;;;;;5046118;28;85364;-45
2022/02/18 03:05:06;;;;;;;;;;;8.10;79.40;;;;;;5047502;27;81953;-44
2022/02/18 03:07:32;;;;;;;;;;;8.10;79.40;;;;;;5047204;27;83910;-44
2022/02/18 03:09:57;;;;;;;;;;;8.10;79.40;;;;;;5050182;27;83359;-45
2022/02/18 03:12:23;;;;;;;;;;;8.10;79.30;;;;;;5047528;27;83011;-44
2022/02/18 03:14:48;;;;;;;;;;;8.10;79.30;;;;;;5047215;27;83781;-44
2022/02/18 03:17:14;;;;;;;;;;;8.10;79.30;;;;;;5047280;27;82009;-44
2022/02/18 03:19:40;;;;;;;;;;;8.00;79.30;;;;;;5047658;27;83760;-44
2022/02/18 03:22:08;;;;;;;;;;;8.00;79.10;;;;;;5046943;27;84736;-44
2022/02/18 03:24:34;;;;;;;;;;;8.00;79.20;;;;;;5047074;27;81961;-44
2022/02/18 03:27:00;;;;;;;;;;;8.00;79.10;;;;;;5046453;27;84216;-44
2022/02/18 03:29:26;;;;;;;;;;;8.00;79.00;;;;;;5046972;28;84641;-44
2022/02/18 03:31:52;;;;;;;;;;;8.00;79.00;;;;;;5049917;27;82076;-44
2022/02/18 03:34:17;;;;;;;;;;;8.00;79.00;;;;;;5046987;27;84635;-44
2022/02/18 03:36:43;;;;;;;;;;;8.00;79.10;;;;;;5046825;27;81791;-44
2022/02/18 03:39:09;;;;;;;;;;;8.00;79.10;;;;;;5046971;27;82685;-44
2022/02/18 03:41:35;;;;;;;;;;;8.00;79.10;;;;;;5046718;27;84320;-44
2022/02/18 03:44:00;;;;;;;;;;;7.90;79.10;;;;;;5047568;27;81328;-44
2022/02/18 03:46:26;;;;;;;;;;;8.00;79.10;;;;;;5046922;27;82302;-44
2022/02/18 03:48:52;;;;;;;;;;;8.00;79.20;;;;;;5046605;27;84682;-44
2022/02/18 03:51:17;;;;;;;;;;;7.90;79.20;;;;;;5046083;28;83006;-44
2022/02/18 03:53:45;;;;;;;;;;;7.90;79.10;;;;;;5049406;27;84075;-44
2022/02/18 03:56:11;;;;;;;;;;;7.90;79.10;;;;;;5046738;27;81945;-45
2022/02/18 03:58:36;;;;;;;;;;;7.90;79.10;;;;;;5046785;27;82914;-44
2022/02/18 04:01:02;;;;;;;;;;;7.90;79.00;;;;;;5045702;27;84839;-44
2022/02/18 04:03:27;;;;;;;;;;;7.90;79.10;;;;;;5046718;27;81861;-44
2022/02/18 04:05:53;;;;;;;;;;;7.90;79.10;;;;;;5046590;27;84290;-44
2022/02/18 04:08:18;;;;;;;;;;;7.90;79.10;;;;;;5048528;28;83935;-44
2022/02/18 04:10:44;;;;;;;;;;;7.80;79.10;;;;;;5050179;27;81828;-44
2022/02/18 04:13:09;;;;;;;;;;;7.90;79.00;;;;;;5050011;27;83737;-43
2022/02/18 04:15:35;;;;;;;;;;;7.80;79.10;;;;;;5052351;28;85595;-44
2022/02/18 04:18:01;;;;;;;;;;;7.80;78.80;;;;;;5050134;27;85170;-44
2022/02/18 04:20:26;;;;;;;;;;;7.80;78.80;;;;;;5050029;27;84239;-44
2022/02/18 04:22:52;;;;;;;;;;;7.80;78.80;;;;;;5049988;27;82099;-44
2022/02/18 04:25:18;;;;;;;;;;;7.80;78.40;;;;;;5050202;27;84478;-44
2022/02/18 04:27:51;;;;;;;;;;;7.80;78.80;;;;;;5049695;27;84719;-44
2022/02/18 04:30:17;;;;;;;;;;;7.80;78.50;;;;;;5050108;27;81827;-44
2022/02/18 04:32:43;;;;;;;;;;;7.80;78.80;;;;;;5050394;27;83844;-44
2022/02/18 04:35:08;;;;;;;;;;;7.70;78.50;;;;;;5049441;27;83487;-44
2022/02/18 04:37:34;;;;;;;;;;;7.70;78.60;;;;;;5052656;27;82065;-44
2022/02/18 04:39:59;;;;;;;;;;;7.70;78.60;;;;;;5048998;28;85549;-44
2022/02/18 04:42:25;;;;;;;;;;;7.70;78.60;;;;;;5049658;28;82074;-44
2022/02/18 04:44:51;;;;;;;;;;;7.70;78.70;;;;;;5049771;27;83726;-44
2022/02/18 04:47:16;;;;;;;;;;;7.70;78.60;;;;;;5049486;27;84415;-44
2022/02/18 04:49:43;;;;;;;;;;;7.70;79.00;;;;;;5049652;27;82043;-44
2022/02/18 04:52:09;;;;;;;;;;;7.70;78.50;;;;;;5049249;27;83570;-43
2022/02/18 04:54:34;;;;;;;;;;;7.70;78.40;;;;;;5049414;27;84429;-44
2022/02/18 04:57:00;;;;;;;;;;;7.70;78.40;;;;;;5050045;28;81282;-44
2022/02/18 04:59:25;;;;;;;;;;;7.60;78.30;;;;;;5052326;28;83135;-45
2022/02/18 05:01:51;;;;;;;;;;;7.60;78.40;;;;;;5049054;28;82080;-44
2022/02/18 05:04:16;;;;;;;;;;;7.70;78.40;;;;;;5048883;28;84064;-44
2022/02/18 05:06:42;;;;;;;;;;;7.60;78.30;;;;;;5048955;27;84617;-44
2022/02/18 05:09:07;;;;;;;;;;;7.60;78.40;;;;;;5049290;28;81921;-45
2022/02/18 05:11:33;;;;;;;;;;;7.60;78.30;;;;;;5049376;27;83838;-44
2022/02/18 05:13:58;;;;;;;;;;;7.70;78.50;;;;;;5048923;27;84393;-45
2022/02/18 05:16:24;;;;;;;;;;;7.60;78.40;;;;;;5049215;28;82095;-44
2022/02/18 05:18:51;;;;;;;;;;;7.60;78.50;;;;;;5051551;27;83947;-44
2022/02/18 05:21:18;;;;;;;;;;;7.60;78.60;;;;;;5048977;27;81265;-44
2022/02/18 05:23:44;;;;;;;;;;;7.60;78.60;;;;;;5049301;27;82484;-44
2022/02/18 05:26:09;;;;;;;;;;;7.60;78.50;;;;;;5048952;27;84157;-44
2022/02/18 05:28:35;;;;;;;;;;;7.60;78.50;;;;;;5048457;27;83033;-44
2022/02/18 05:31:00;;;;;;;;;;;7.60;78.70;;;;;;5049179;27;83304;-43
2022/02/18 05:33:26;;;;;;;;;;;7.60;78.60;;;;;;5048783;27;84652;-44
2022/02/18 05:35:51;;;;;;;;;;;7.60;78.60;;;;;;5048787;27;82102;-43
2022/02/18 05:38:17;;;;;;;;;;;7.50;78.60;;;;;;5049011;28;82241;-44
2022/02/18 05:40:42;;;;;;;;;;;7.50;78.60;;;;;;5051407;28;83505;-43
2022/02/18 05:43:08;;;;;;;;;;;7.50;78.60;;;;;;5048869;27;84034;-43
2022/02/18 05:45:33;;;;;;;;;;;7.50;78.60;;;;;;5048977;27;83632;-43
2022/02/18 05:47:59;;;;;;;;;;;7.50;78.60;;;;;;5048730;27;81966;-43
2022/02/18 05:50:24;;;;;;;;;;;7.50;78.60;;;;;;5048511;27;83932;-43
2022/02/18 05:52:50;;;;;;;;;;;7.50;78.60;;;;;;5047660;27;85168;-43
2022/02/18 05:55:15;;;;;;;;;;;7.50;78.60;;;;;;5048611;27;82128;-44
2022/02/18 05:57:41;;;;;;;;;;;7.50;79.20;;;;;;5048576;27;83920;-44
2022/02/18 06:00:07;;;;;;;;;;;7.50;78.60;;;;;;5048528;27;83503;-44
2022/02/18 06:02:33;;;;;;;;;;;7.50;78.60;;;;;;5051197;27;82101;-43
2022/02/18 06:05:01;;;;;;;;;;;7.50;78.60;;;;;;5048177;27;84599;-43
2022/02/18 06:07:27;;;;;;;;;;;7.40;78.60;;;;;;5048356;27;82114;-44
2022/02/18 06:09:52;;;;;;;;;;;7.40;78.60;;;;;;5048868;27;83924;-44
2022/02/18 06:12:18;;;;;;;;;;;7.50;78.60;;;;;;5047976;27;84692;-44
2022/02/18 06:14:43;;;;;;;;;;;7.40;78.60;;;;;;5048518;27;82135;-44
2022/02/18 06:17:10;;;;;;;;;;;7.40;78.50;;;;;;5046480;28;85446;-43
2022/02/18 06:19:35;;;;;;;;;;;7.40;78.40;;;;;;5047968;28;84343;-43
2022/02/18 06:22:01;;;;;;;;;;;7.40;78.10;;;;;;5048222;27;81963;-44
2022/02/18 06:24:27;;;;;;;;;;;7.40;78.10;;;;;;5050838;27;83511;-43
2022/02/18 06:26:52;;;;;;;;;;;7.40;78.20;;;;;;5048087;27;82063;-44
2022/02/18 06:29:18;;;;;;;;;;;7.40;78.30;;;;;;5048160;27;84323;-44
2022/02/18 06:31:43;;;;;;;;;;;7.40;78.30;;;;;;5045517;28;86134;-44
2022/02/18 06:34:09;;;;;;;;;;;7.40;77.90;;;;;;5048624;27;81267;-43
2022/02/18 06:36:34;;;;;;;;;;;7.40;78.00;;;;;;5047901;27;83208;-44
2022/02/18 06:39:00;;;;;;;;;;;7.40;78.00;;;;;;5047752;28;84143;-44
2022/02/18 06:41:25;;;;;;;;;;;7.30;77.90;;;;;;5045970;28;82860;-43
2022/02/18 06:43:51;;;;;;;;;;;7.40;77.90;;;;;;5047899;27;84616;-43
2022/02/18 06:46:16;;;;;;;;;;;7.40;78.10;;;;;;5050576;27;84671;-44
2022/02/18 06:48:42;;;;;;;;;;;7.30;78.00;;;;;;5047940;27;84097;-43
2022/02/18 06:51:08;;;;;;;;;;;7.40;78.10;;;;;;5047440;27;84867;-43
2022/02/18 06:53:33;;;;;;;;;;;7.40;78.10;;;;;;5047658;27;82064;-43
2022/02/18 06:55:59;;;;;;;;;;;7.40;78.10;;;;;;5047641;27;83835;-43
2022/02/18 06:58:25;;;;;;;;;;;7.40;78.10;;;;;;5048237;27;82791;-43
2022/02/18 07:00:51;;;;;;;;;;;7.40;78.20;;;;;;5047141;27;82083;-44
2022/02/18 07:03:18;;;;;;;;;;;7.40;78.20;;;;;;5047722;27;84568;-43
2022/02/18 07:05:43;;;;;;;;;;;7.40;78.10;;;;;;5046625;27;84686;-44
2022/02/18 07:08:09;;;;;;;;;;;7.40;77.90;;;;;;5050126;27;81887;-44
2022/02/18 07:10:36;;;;;;;;;;;7.40;78.00;;;;;;5047648;28;82293;-44
2022/02/18 07:13:01;;;;;;;;;;;7.40;78.00;;;;;;5047389;27;82028;-43
2022/02/18 07:15:27;;;;;;;;;;;7.40;78.00;;;;;;5047538;27;84493;-43
2022/02/18 07:17:54;;;;;;;;;;;7.40;78.00;;;;;;5047128;28;84938;-44
2022/02/18 07:20:20;;;;;;;;;;;7.40;77.80;;;;;;5047165;27;81974;-44
2022/02/18 07:22:45;;;;;;;;;;;7.40;77.90;;;;;;5047837;27;84031;-43
2022/02/18 07:25:14;;;;;;;;;;;7.30;77.80;;;;;;5047317;27;83765;-43
2022/02/18 07:27:39;;;;;;;;;;;7.40;77.80;;;;;;5049963;27;82059;-43
2022/02/18 07:30:05;;;;;;;;;;;7.40;77.90;;;;;;5046339;28;84283;-43
2022/02/18 07:32:30;;;;;;;;;;;7.40;77.80;;;;;;5047064;27;82046;-43
2022/02/18 07:34:56;;;;;;;;;;;7.40;77.80;;;;;;5046779;27;83997;-44
2022/02/18 07:37:22;;;;;;;;;;;7.40;77.80;;;;;;5046929;27;84460;-44
2022/02/18 07:39:47;;;;;;;;;;;7.40;77.80;;;;;;5047148;27;82021;-43
2022/02/18 07:42:14;;;;;;;;;;;7.40;77.90;;;;;;5046658;27;83980;-43
2022/02/18 07:44:40;;;;;;;;;;;7.40;77.90;;;;;;5046913;28;84602;-44
2022/02/18 07:47:05;;;;;;;;;;;7.40;77.90;;;;;;5047476;27;81338;-44
2022/02/18 07:49:31;;;;;;;;;;;7.40;77.80;;;;;;5049329;27;83728;-44
2022/02/18 07:51:56;;;;;;;;;;;7.40;77.80;;;;;;5047059;27;82123;-44
2022/02/18 07:54:22;;;;;;;;;;;7.40;77.80;;;;;;5046362;27;84371;-44
2022/02/18 07:56:47;;;;;;;;;;;7.40;77.80;;;;;;5046584;27;84880;-43
2022/02/18 07:59:13;;;;;;;;;;;7.40;77.80;;;;;;5046777;27;81974;-44
2022/02/18 08:01:38;;;;;;;;;;;7.40;77.80;;;;;;5046196;27;84215;-43
2022/02/18 08:04:05;;;;;;;;;;;7.40;77.70;;;;;;5046615;27;84375;-43
2022/02/18 08:06:31;;;;;;;;;;;7.40;77.50;;;;;;5046551;27;82045;-43
2022/02/18 08:08:57;;;;;;;;;;;7.40;77.50;;;;;;5046806;27;83801;-44
2022/02/18 08:11:23;;;;;;;;;;;7.40;77.50;;;;;;5049810;27;83809;-44
2022/02/18 08:13:48;;;;;;;;;;;7.40;77.50;;;;;;5046652;27;83342;-43
2022/02/18 08:16:14;;;;;;;;;;;7.30;77.20;;;;;;5046410;27;84374;-43
2022/02/18 08:18:43;;;;;;;;;;;7.40;77.40;;;;;;5045799;27;82925;-44
2022/02/18 08:21:12;;;;;;;;;;;7.40;77.50;;;;;;5046319;27;85600;-43
2022/02/18 08:23:38;;;;;;;;;;;7.40;77.40;;;;;;5046604;27;84608;-43
2022/02/18 08:26:04;;;;;;;;;;;7.30;77.30;;;;;;5046475;27;82087;-43
2022/02/18 08:28:29;;;;;;;;;;;7.40;77.40;;;;;;5046632;27;84380;-43
2022/02/18 08:30:55;;;;;;;;;;;7.40;77.40;;;;;;5046235;27;83698;-44
2022/02/18 08:33:20;;;;;;;;;;;7.30;77.40;;;;;;5049096;27;81977;-44
2022/02/18 08:35:46;;;;;;;;;;;7.40;77.30;;;;;;5046229;27;84547;-44
2022/02/18 08:38:11;;;;;;;;;;;7.40;77.40;;;;;;5046249;27;82017;-43
2022/02/18 08:40:37;;;;;;;;;;;7.40;77.20;;;;;;5046434;27;83820;-43
2022/02/18 08:43:03;;;;;;;;;;;7.40;77.30;;;;;;5045460;27;85471;-43
2022/02/18 08:45:29;;;;;;;;;;;7.40;77.40;;;;;;5046423;27;82190;-43
2022/02/18 08:47:55;;;;;;;;;;;7.40;77.40;;;;;;5046195;28;83218;-43
2022/02/18 08:50:21;;;;;;;;;;;7.40;77.40;;;;;;5045781;27;84503;-43
2022/02/18 08:52:46;;;;;;;;;;;7.40;77.40;;;;;;5046022;27;82063;-43
2022/02/18 08:55:14;;;;;;;;;;;7.40;77.40;;;;;;5049972;27;83928;-44
2022/02/18 08:57:40;;;;;;;;;;;7.40;77.30;;;;;;5049541;28;82139;-46
2022/02/18 09:00:07;;;;;;;;;;;7.40;77.50;;;;;;5049931;27;83917;-43
2022/02/18 09:02:36;;;;;;;;;;;7.40;77.50;;;;;;5048935;27;84567;-43
2022/02/18 09:05:02;;;;;;;;;;;7.40;77.60;;;;;;5049137;27;82219;-44
2022/02/18 09:07:28;;;;;;;;;;;7.40;77.50;;;;;;5049076;27;82732;-43
2022/02/18 09:09:56;;;;;;;;;;;7.40;77.50;;;;;;5049400;28;82622;-43
2022/02/18 09:12:21;;;;;;;;;;;7.40;77.30;;;;;;5049211;27;82083;-44
2022/02/18 09:14:47;;;;;;;;;;;7.40;77.30;;;;;;5052109;27;84196;-44
2022/02/18 09:17:12;;;;;;;;;;;7.40;77.30;;;;;;5049382;27;82108;-44
2022/02/18 09:19:38;;;;;;;;;;;7.40;77.30;;;;;;5049093;28;83949;-43
2022/02/18 09:22:03;;;;;;;;;;;7.40;77.10;;;;;;5048968;27;83454;-44
2022/02/18 09:24:29;;;;;;;;;;;7.40;77.20;;;;;;5049597;27;81364;-44
2022/02/18 09:26:54;;;;;;;;;;;7.40;77.20;;;;;;5049179;27;82679;-43
2022/02/18 09:29:20;;;;;;;;;;;7.40;77.20;;;;;;5048960;27;84551;-43
2022/02/18 09:31:46;;;;;;;;;;;7.40;77.20;;;;;;5048370;27;83040;-43
2022/02/18 09:34:12;;;;;;;;;;;7.30;76.90;;;;;;5048721;27;83638;-43
2022/02/18 09:36:38;;;;;;;;;;;7.40;77.00;;;;;;5051448;28;84591;-43
2022/02/18 09:39:04;;;;;;;;;;;7.40;77.00;;;;;;5048971;27;83920;-44
2022/02/18 09:41:30;;;;;;;;;;;7.40;77.10;;;;;;5048701;27;84552;-43
2022/02/18 09:43:59;;;;;;;;;;;7.40;77.00;;;;;;5048949;27;82135;-43
2022/02/18 09:46:25;;;;;;;;;;;7.40;77.10;;;;;;5048821;27;83999;-43
2022/02/18 09:48:51;;;;;;;;;;;7.40;77.10;;;;;;5049037;28;84136;-43
2022/02/18 09:51:18;;;;;;;;;;;7.40;77.10;;;;;;5048818;27;81677;-43
2022/02/18 09:53:44;;;;;;;;;;;7.40;77.10;;;;;;5048779;27;83361;-44
2022/02/18 09:56:10;;;;;;;;;;;7.40;77.00;;;;;;5047695;27;85477;-44
2022/02/18 09:58:36;;;;;;;;;;;7.40;77.10;;;;;;5051635;27;82263;-43
2022/02/18 10:01:02;;;;;;;;;;;7.40;77.00;;;;;;5047673;27;84954;-43
2022/02/18 10:03:28;;;;;;;;;;;7.40;76.60;;;;;;5048489;27;81895;-43
2022/02/18 10:05:53;;;;;;;;;;;7.40;76.60;;;;;;5048311;27;83668;-43
2022/02/18 10:08:22;;;;;;;;;;;7.40;76.20;;;;;;5048263;27;84349;-43
2022/02/18 10:10:57;;;;;;;;;;;7.50;76.30;;;;;;5048364;28;81977;-43
2022/02/18 10:13:34;;;;;;;;;;;7.50;76.20;;;;;;5048774;28;84056;-44
2022/02/18 10:16:00;;;;;;;;;;;7.40;76.40;;;;;;5047981;27;84547;-44
2022/02/18 10:18:26;;;;;;;;;;;7.40;76.40;;;;;;5048326;27;81805;-44
2022/02/18 10:20:53;;;;;;;;;;;7.40;76.40;;;;;;5050263;27;83380;-44
2022/02/18 10:23:20;;;;;;;;;;;7.40;76.50;;;;;;5048190;27;82028;-44
2022/02/18 10:25:46;;;;;;;;;;;7.50;76.60;;;;;;5048204;27;83750;-44
2022/02/18 10:28:13;;;;;;;;;;;7.50;76.60;;;;;;5048023;27;83787;-43
2022/02/18 10:30:39;;;;;;;;;;;7.50;76.50;;;;;;5048123;27;81997;-43
2022/02/18 10:33:20;;;;;;;;;;;7.50;76.50;;;;;;5048056;27;84095;-43
2022/02/18 10:35:46;;;;;;;;;;;7.50;76.60;;;;;;5048170;27;84707;-44
2022/02/18 10:38:12;;;;;;;;;;;7.50;76.60;;;;;;5048460;27;81319;-44
2022/02/18 10:40:42;;;;;;;;;;;7.50;76.20;;;;;;5048069;27;83211;-44
2022/02/18 10:43:09;;;;;;;;;;;7.50;76.20;;;;;;5050407;28;84624;-44
2022/02/18 10:45:35;;;;;;;;;;;7.50;76.20;;;;;;5047149;27;84013;-43
2022/02/18 10:48:13;;;;;;;;;;;7.50;76.30;;;;;;5047595;27;83729;-43
2022/02/18 10:50:39;;;;;;;;;;;7.60;76.00;;;;;;5047754;27;81993;-43
2022/02/18 10:53:09;;;;;;;;;;;7.50;76.00;;;;;;5047677;27;83718;-43
2022/02/18 10:55:50;;;;;;;;;;;7.60;75.70;;;;;;5047565;27;84268;-44
2022/02/18 10:58:21;;;;;;;;;;;7.60;75.80;;;;;;5047576;27;82185;-44
2022/02/18 11:01:00;;;;;;;;;;;7.60;75.90;;;;;;5047511;28;83982;-44
2022/02/18 11:03:25;;;;;;;;;;;7.60;75.80;;;;;;5048078;27;82549;-43
2022/02/18 11:05:51;;;;;;;;;;;7.60;75.80;;;;;;5050248;27;82031;-43
2022/02/18 11:08:29;;;;;;;;;;;7.60;75.80;;;;;;5047172;27;83554;-44
2022/02/18 11:10:56;;;;;;;;;;;7.60;75.10;;;;;;5046797;27;83014;-43
2022/02/18 11:13:22;;;;;;;;;;;7.60;75.00;;;;;;5047388;28;83880;-43
2022/02/18 11:15:48;;;;;;;;;;;7.60;74.50;;;;;;5047317;27;84532;-44
2022/02/18 11:18:14;;;;;;;;;;;7.60;74.90;;;;;;5046918;27;81698;-43
2022/02/18 11:20:41;;;;;;;;;;;7.70;74.90;;;;;;5047253;27;84099;-43
2022/02/18 11:23:07;;;;;;;;;;;7.70;74.90;;;;;;5047084;27;84265;-44
2022/02/18 11:25:32;;;;;;;;;;;7.70;74.60;;;;;;5049857;28;82089;-44
2022/02/18 11:27:58;;;;;;;;;;;7.70;74.00;;;;;;5047751;27;83579;-43
2022/02/18 11:30:23;;;;;;;;;;;7.70;74.10;;;;;;5047317;27;82101;-44
2022/02/18 11:32:49;;;;;;;;;;;7.70;74.10;;;;;;5046894;28;84226;-46
2022/02/18 11:35:33;;;;;;;;;;;7.70;74.20;;;;;;5046176;27;85436;-47
2022/02/18 11:38:04;;;;;;;;;;;7.70;74.40;;;;;;5047062;27;82028;-44
2022/02/18 11:40:33;;;;;;;;;;;7.70;74.60;;;;;;5047021;27;83826;-44
2022/02/18 11:43:16;;;;;;;;;;;7.70;74.20;;;;;;5046880;28;84113;-45
2022/02/18 11:45:42;;;;;;;;;;;7.70;74.20;;;;;;5046855;28;82009;-45
2022/02/18 11:48:08;;;;;;;;;;;7.80;74.50;;;;;;5049474;27;83852;-44
2022/02/18 11:50:33;;;;;;;;;;;7.80;74.20;;;;;;5047025;28;81969;-44
2022/02/18 11:53:00;;;;;;;;;;;7.80;74.30;;;;;;5046047;28;84373;-44
2022/02/18 11:55:31;;;;;;;;;;;7.80;74.50;;;;;;5046716;27;84465;-44
2022/02/18 11:57:58;;;;;;;;;;;7.80;74.50;;;;;;5046797;27;82073;-44
2022/02/18 12:00:56;;;;;;;;;;;7.80;74.00;;;;;;5046347;27;83797;-44
2022/02/18 12:03:23;;;;;;;;;;;7.90;74.40;;;;;;5022649;27;83551;-44
2022/02/18 12:06:01;;;;;;;;;;;7.80;74.10;;;;;;5046984;27;82274;-44
2022/02/18 12:08:29;;;;;;;;;;;7.90;74.20;;;;;;5046737;27;83906;-44
2022/02/18 12:10:57;;;;;;;;;;;7.90;74.30;;;;;;5049029;27;83818;-44
2022/02/18 12:13:23;;;;;;;;;;;7.90;74.30;;;;;;5046521;27;83851;-47
2022/02/18 12:15:49;;;;;;;;;;;7.90;74.30;;;;;;5046671;27;83466;-45
2022/02/18 12:18:24;;;;;;;;;;;7.90;74.30;;;;;;5047004;28;81076;-46
2022/02/18 12:21:04;;;;;;;;;;;7.90;74.30;;;;;;5046634;28;83790;-48
2022/02/18 12:23:30;;;;;;;;;;;7.90;74.30;;;;;;5046219;28;84739;-44
2022/02/18 12:26:14;;;;;;;;;;;7.90;73.60;;;;;;5045794;28;82987;-44
2022/02/18 12:28:40;;;;;;;;;;;8.00;74.10;;;;;;5047184;27;83801;-44
2022/02/18 12:31:09;;;;;;;;;;;7.90;74.30;;;;;;5049908;27;84572;-44
2022/02/18 12:33:38;;;;;;;;;;;8.00;74.30;;;;;;5052523;27;81984;-44
2022/02/18 12:36:11;;;;;;;;;;;8.00;74.60;;;;;;5049445;27;84451;-43
2022/02/18 12:38:40;;;;;;;;;;;8.00;74.60;;;;;;5050000;28;82121;-44
2022/02/18 12:41:09;;;;;;;;;;;8.00;74.50;;;;;;5049968;27;82912;-44
2022/02/18 12:43:34;;;;;;;;;;;8.00;74.70;;;;;;5050179;27;84007;-44
2022/02/18 12:46:05;;;;;;;;;;;8.00;74.10;;;;;;5049765;28;82081;-44
2022/02/18 12:48:41;;;;;;;;;;;8.10;73.60;;;;;;5049654;27;84095;-44
2022/02/18 12:51:08;;;;;;;;;;;8.10;73.70;;;;;;5048760;27;86043;-43
2022/02/18 12:53:34;;;;;;;;;;;8.10;73.20;;;;;;5049533;27;81861;-43
2022/02/18 12:56:00;;;;;;;;;;;8.10;73.30;;;;;;5052283;27;83031;-44
2022/02/18 12:58:26;;;;;;;;;;;8.10;73.20;;;;;;5049692;27;81998;-43
2022/02/18 13:00:51;;;;;;;;;;;8.10;72.70;;;;;;5049558;27;83036;-44
2022/02/18 13:03:17;;;;;;;;;;;8.10;72.90;;;;;;5048844;27;84487;-44
2022/02/18 13:05:42;;;;;;;;;;;8.20;73.10;;;;;;5049476;28;82138;-44
2022/02/18 13:08:18;;;;;;;;;;;8.20;72.80;;;;;;5050294;27;82342;-44
2022/02/18 13:10:44;;;;;;;;;;;8.20;72.90;;;;;;5049244;27;84305;-44
2022/02/18 13:13:11;;;;;;;;;;;8.20;72.70;;;;;;5049261;27;81951;-44
2022/02/18 13:15:37;;;;;;;;;;;8.20;72.70;;;;;;5048822;27;83078;-44
2022/02/18 13:18:03;;;;;;;;;;;8.20;72.70;;;;;;5051724;27;84383;-45
2022/02/18 13:20:49;;;;;;;;;;;8.20;73.00;;;;;;5049151;27;83869;-44
2022/02/18 13:23:18;;;;;;;;;;;8.20;73.00;;;;;;5048588;28;84480;-43
2022/02/18 13:25:43;;;;;;;;;;;8.30;72.30;;;;;;5049146;27;81827;-43
2022/02/18 13:28:10;;;;;;;;;;;8.30;72.50;;;;;;5049075;28;84158;-44
2022/02/18 13:30:37;;;;;;;;;;;8.20;72.60;;;;;;5048640;27;84920;-44
2022/02/18 13:33:04;;;;;;;;;;;8.30;73.10;;;;;;5049573;28;81226;-43
2022/02/18 13:35:30;;;;;;;;;;;8.30;72.50;;;;;;5049081;27;83134;-44
2022/02/18 13:37:56;;;;;;;;;;;8.30;72.90;;;;;;5051479;27;84488;-44
2022/02/18 13:40:26;;;;;;;;;;;8.30;72.70;;;;;;5047855;27;83435;-44
2022/02/18 13:42:56;;;;;;;;;;;8.30;72.70;;;;;;5048749;27;83676;-46
2022/02/18 13:45:22;;;;;;;;;;;8.40;72.70;;;;;;5048996;27;82087;-44
2022/02/18 13:47:47;;;;;;;;;;;8.40;71.80;;;;;;5049000;28;82908;-44
2022/02/18 13:50:14;;;;;;;;;;;8.40;72.30;;;;;;5048627;27;84132;-44
2022/02/18 13:52:40;;;;;;;;;;;8.40;71.30;;;;;;5048583;27;81832;-43
2022/02/18 13:55:06;;;;;;;;;;;8.40;71.40;;;;;;5048712;28;84298;-44
2022/02/18 13:57:32;;;;;;;;;;;8.40;71.60;;;;;;5048693;27;83875;-44
2022/02/18 13:59:58;;;;;;;;;;;8.40;71.20;;;;;;5051610;27;82088;-43
2022/02/18 14:02:23;;;;;;;;;;;8.40;71.40;;;;;;5048357;27;84456;-44
2022/02/18 14:04:50;;;;;;;;;;;8.50;71.60;;;;;;5047989;27;83041;-43
2022/02/18 14:07:18;;;;;;;;;;;8.50;71.30;;;;;;5048429;28;83614;-43
2022/02/18 14:09:45;;;;;;;;;;;8.50;71.40;;;;;;5048202;28;84344;-44
2022/02/18 14:12:17;;;;;;;;;;;8.50;71.60;;;;;;5048335;27;82018;-43
2022/02/18 14:14:58;;;;;;;;;;;8.50;71.50;;;;;;5048470;27;83688;-44
2022/02/18 14:17:25;;;;;;;;;;;8.50;71.40;;;;;;5048148;27;84675;-44
2022/02/18 14:19:52;;;;;;;;;;;8.50;71.50;;;;;;5048377;27;82059;-44
2022/02/18 14:22:48;;;;;;;;;;;8.50;71.60;;;;;;5051224;27;83793;-44
2022/02/18 14:25:34;;;;;;;;;;;8.60;71.70;;;;;;5039644;27;82042;-43
2022/02/18 14:28:11;;;;;;;;;;;8.50;71.70;;;;;;5048352;28;84022;-43
2022/02/18 14:30:44;;;;;;;;;;;8.60;72.00;;;;;;5047398;27;85199;-44
2022/02/18 14:33:18;;;;;;;;;;;8.60;71.80;;;;;;5047847;27;82058;-44